Time;durP1;ratioP1;P1;durP2;ratioP2;P2;SDS_P1;SDS_P2;PMS_P1;PMS_P2;Temp;Humidity;BMP_temperature;BMP_pressure;BME280_temperature;BME280_humidity;BME280_pressure;Samples;Min_cycle;Max_cycle;Signal;HPM_P1;HPM_P2
2021/12/15 05:35:56;;;;;;;7.18;1.98;;;27.20;52.50;;;;;;5106807;27;20420;-70
2021/12/15 05:38:24;;;;;;;24.98;3.15;;;27.10;51.90;;;;;;5105953;28;20059;-70
2021/12/15 05:40:56;;;;;;;14.50;3.00;;;26.80;52.20;;;;;;5105430;28;20379;-70
2021/12/15 05:43:24;;;;;;;9.52;2.38;;;26.50;53.20;;;;;;5107408;28;20031;-70
2021/12/15 05:45:51;;;;;;;14.50;3.17;;;26.30;53.20;;;;;;5106937;28;20363;-69
2021/12/15 05:48:19;;;;;;;8.07;3.47;;;26.20;55.50;;;;;;5106643;28;20028;-73
2021/12/15 05:50:46;;;;;;;20.20;3.97;;;26.10;53.80;;;;;;5107461;28;20437;-69
2021/12/15 05:53:14;;;;;;;10.18;2.00;;;26.00;55.60;;;;;;5107862;28;20049;-69
2021/12/15 05:55:42;;;;;;;6.03;1.90;;;26.00;56.10;;;;;;5088913;28;20062;-74
2021/12/15 05:58:09;;;;;;;15.27;2.70;;;25.90;56.10;;;;;;5104686;28;20055;-69
2021/12/15 06:00:39;;;;;;;10.48;2.20;;;25.90;56.60;;;;;;5106906;28;20419;-70
2021/12/15 06:03:07;;;;;;;11.45;2.42;;;25.80;56.30;;;;;;5101346;28;20692;-71
2021/12/15 06:05:34;;;;;;;9.85;2.30;;;25.80;56.50;;;;;;5071591;28;20079;-72
2021/12/15 06:08:02;;;;;;;8.43;2.25;;;25.80;57.00;;;;;;5096144;28;20033;-72
2021/12/15 06:10:30;;;;;;;11.13;2.15;;;25.70;56.50;;;;;;5103469;28;20441;-71
2021/12/15 06:12:57;;;;;;;12.07;3.25;;;25.70;56.50;;;;;;5105916;28;20040;-72
2021/12/15 06:15:25;;;;;;;7.35;1.92;;;25.70;57.10;;;;;;5099855;28;20075;-71
2021/12/15 06:18:04;;;;;;;9.27;2.00;;;25.70;56.80;;;;;;5085872;28;20058;-72
2021/12/15 06:20:32;;;;;;;9.32;2.30;;;25.80;57.20;;;;;;5096478;28;20028;-69
2021/12/15 06:23:00;;;;;;;8.98;2.42;;;25.80;57.30;;;;;;5085322;28;20394;-69
2021/12/15 06:25:31;;;;;;;16.77;2.97;;;25.90;57.30;;;;;;5090299;28;20024;-71
2021/12/15 06:27:58;;;;;;;13.60;2.35;;;25.90;57.50;;;;;;5088051;28;20025;-71
2021/12/15 06:30:25;;;;;;;6.40;1.88;;;25.90;57.50;;;;;;5104674;28;20111;-72
2021/12/15 06:32:56;;;;;;;7.07;1.90;;;25.90;57.60;;;;;;5089170;28;20035;-72
2021/12/15 06:35:23;;;;;;;5.88;2.03;;;25.90;57.10;;;;;;5105345;28;20054;-70
2021/12/15 06:37:50;;;;;;;7.55;1.98;;;25.90;57.40;;;;;;5106697;28;20028;-70
2021/12/15 06:40:17;;;;;;;9.30;2.70;;;26.00;57.50;;;;;;5105537;28;20036;-70
2021/12/15 06:42:45;;;;;;;12.43;2.55;;;26.00;57.50;;;;;;5107758;28;20020;-70
2021/12/15 06:45:16;;;;;;;8.23;2.15;;;26.00;58.00;;;;;;5104105;28;20533;-70
2021/12/15 06:58:44;;;;;;;13.43;3.03;;;25.80;57.10;;;;;;5092617;28;20085;-70
2021/12/15 07:01:13;;;;;;;8.80;2.63;;;25.80;57.40;;;;;;5090364;28;20028;-70
2021/12/15 08:44:39;;;;;;;9.48;2.35;;;25.00;65.80;;;;;;5058790;28;20123;-71
2021/12/15 08:47:07;;;;;;;7.13;2.25;;;25.00;66.20;;;;;;5034189;28;20033;-70
2021/12/15 08:49:39;;;;;;;9.07;2.30;;;25.00;66.40;;;;;;5057169;28;20031;-71
2021/12/15 08:52:07;;;;;;;6.00;2.28;;;25.00;66.70;;;;;;5041725;28;20029;-71
2021/12/15 08:54:34;;;;;;;8.27;2.10;;;25.00;66.80;;;;;;5011895;28;20132;-71
2021/12/15 08:57:02;;;;;;;22.98;3.35;;;25.00;66.90;;;;;;5051703;28;20056;-71
2021/12/15 08:59:29;;;;;;;22.40;2.40;;;25.00;66.40;;;;;;5065269;28;20064;-72
2021/12/15 09:01:56;;;;;;;15.23;2.03;;;25.00;64.10;;;;;;5043186;28;20056;-70
2021/12/15 09:04:23;;;;;;;30.95;3.55;;;25.10;63.60;;;;;;5062672;28;20048;-70
2021/12/15 09:06:50;;;;;;;6.43;1.85;;;25.20;65.00;;;;;;5034029;28;20037;-70
2021/12/15 09:09:21;;;;;;;14.10;2.35;;;25.10;68.30;;;;;;5036412;28;20103;-71
2021/12/15 09:11:49;;;;;;;7.78;1.80;;;24.70;72.00;;;;;;5033543;28;20083;-71
2021/12/15 09:14:19;;;;;;;8.20;1.95;;;24.30;74.20;;;;;;5040055;28;20041;-72
2021/12/15 09:16:51;;;;;;;;;;;23.90;75.50;;;;;;5039618;28;20060;-70
2021/12/15 09:19:18;;;;;;;12.23;2.83;;;23.60;77.60;;;;;;5070230;28;20362;-69
2021/12/15 09:21:46;;;;;;;12.18;3.42;;;23.30;81.30;;;;;;5050037;28;20160;-68
2021/12/15 09:24:14;;;;;;;10.20;2.10;;;23.10;82.30;;;;;;5049732;28;20036;-68
2021/12/15 09:26:41;;;;;;;10.07;2.45;;;22.90;83.40;;;;;;5032287;28;20617;-68
2021/12/15 09:29:08;;;;;;;7.82;2.13;;;22.70;84.00;;;;;;5070408;28;20060;-69
2021/12/15 09:31:36;;;;;;;11.07;2.10;;;22.60;85.00;;;;;;5090067;28;20103;-77
2021/12/15 09:34:03;;;;;;;4.95;2.08;;;22.40;85.50;;;;;;5037294;28;20144;-70
2021/12/15 09:36:31;;;;;;;10.50;2.92;;;22.30;86.20;;;;;;5049390;28;20043;-69
2021/12/15 09:39:01;;;;;;;17.35;2.95;;;22.30;87.30;;;;;;5031996;28;20028;-68
2021/12/15 09:41:28;;;;;;;;;;;22.30;87.30;;;;;;5038012;28;20115;-68
2021/12/15 09:43:58;;;;;;;15.65;3.10;;;22.20;88.40;;;;;;5052070;28;20361;-68
2021/12/15 09:46:32;;;;;;;18.17;3.75;;;22.20;88.60;;;;;;5032607;28;20544;-69
2021/12/15 09:57:46;;;;;;;40.75;5.63;;;21.90;89.90;;;;;;5055453;28;20055;-69
2021/12/15 10:03:03;;;;;;;38.83;5.80;;;21.80;90.90;;;;;;5061636;28;20040;-68
2021/12/15 10:05:55;;;;;;;32.70;5.88;;;21.70;91.80;;;;;;5031572;28;20083;-69
2021/12/15 10:19:40;;;;;;;16.92;3.72;;;21.40;93.00;;;;;;5056112;28;20091;-70
2021/12/15 10:22:10;;;;;;;21.08;4.72;;;21.30;92.50;;;;;;5055197;28;20404;-71
2021/12/15 10:24:48;;;;;;;16.90;3.35;;;21.30;93.10;;;;;;5068600;28;20065;-71
2021/12/15 10:27:20;;;;;;;19.15;4.45;;;21.30;92.40;;;;;;5054165;28;20043;-69
2021/12/15 10:30:03;;;;;;;27.77;4.72;;;21.20;93.00;;;;;;5035597;28;20037;-67
2021/12/15 10:32:32;;;;;;;20.75;4.80;;;21.30;92.90;;;;;;5062019;28;20032;-68
2021/12/15 10:35:08;;;;;;;17.27;3.70;;;21.30;93.20;;;;;;5073276;28;20048;-67
2021/12/15 10:37:36;;;;;;;23.15;4.25;;;21.30;93.20;;;;;;5072843;28;20382;-68
2021/12/15 10:40:29;;;;;;;20.08;4.35;;;21.30;93.70;;;;;;5065225;28;20036;-69
2021/12/15 11:59:28;;;;;;;33.42;5.03;;;21.40;92.70;;;;;;5066393;28;20055;-68
2021/12/15 12:02:01;;;;;;;44.20;6.20;;;21.40;93.10;;;;;;5092269;28;20036;-69
2021/12/15 12:04:47;;;;;;;27.60;5.40;;;21.40;93.20;;;;;;5111947;28;20119;-69
2021/12/15 12:07:19;;;;;;;34.55;5.10;;;21.40;93.20;;;;;;5112456;28;20032;-69
2021/12/15 12:09:49;;;;;;;20.58;4.57;;;21.40;93.20;;;;;;5094487;28;20020;-69
2021/12/15 12:12:18;;;;;;;40.03;6.60;;;21.50;93.30;;;;;;5092886;28;20389;-69
2021/12/15 12:14:51;;;;;;;37.38;5.97;;;21.50;93.20;;;;;;5064235;28;20047;-69
2021/12/15 12:17:29;;;;;;;27.58;5.90;;;21.50;93.30;;;;;;5081666;28;20036;-69
2021/12/15 12:20:01;;;;;;;26.98;4.60;;;21.60;93.30;;;;;;5088777;28;20081;-69
2021/12/15 12:22:30;;;;;;;25.55;4.65;;;21.50;93.30;;;;;;5087837;28;20089;-69
2021/12/15 12:24:59;;;;;;;27.30;5.28;;;21.60;93.30;;;;;;5084288;28;20028;-69
2021/12/15 12:27:29;;;;;;;19.67;4.45;;;21.60;93.30;;;;;;5099781;28;20049;-69
2021/12/15 12:29:57;;;;;;;25.30;4.75;;;21.60;93.40;;;;;;5092758;28;20465;-70
2021/12/15 12:32:24;;;;;;;30.35;4.95;;;21.60;93.40;;;;;;5081663;28;20027;-69
2021/12/15 12:34:52;;;;;;;24.52;4.50;;;21.70;93.50;;;;;;5089953;28;20044;-69
2021/12/15 12:37:20;;;;;;;26.35;4.45;;;21.70;93.60;;;;;;5110138;28;20024;-69
2021/12/15 12:39:53;;;;;;;25.23;4.68;;;21.70;93.50;;;;;;5111206;28;20032;-69
2021/12/15 12:42:38;;;;;;;26.00;3.85;;;21.70;93.40;;;;;;5074328;28;20081;-69
2021/12/15 12:45:09;;;;;;;21.98;4.32;;;21.70;93.60;;;;;;5062372;27;20028;-69
2021/12/15 12:47:42;;;;;;;27.08;4.03;;;21.70;93.60;;;;;;5094317;28;20042;-69
2021/12/15 13:04:11;;;;;;;26.02;5.00;;;21.70;93.70;;;;;;5094812;28;20599;-70
2021/12/15 13:06:43;;;;;;;29.83;5.00;;;21.60;93.80;;;;;;5100036;28;20092;-69
2021/12/15 13:09:19;;;;;;;28.60;5.28;;;21.60;93.70;;;;;;5109809;28;20023;-69
2021/12/15 13:11:49;;;;;;;33.00;5.22;;;21.60;93.60;;;;;;5086868;28;20461;-70
2021/12/15 13:14:19;;;;;;;27.27;5.50;;;21.60;93.70;;;;;;5085286;28;20119;-70
2021/12/15 13:16:51;;;;;;;23.43;4.77;;;21.70;93.50;;;;;;5078660;28;20621;-69
2021/12/15 13:19:19;;;;;;;31.48;5.43;;;21.60;93.70;;;;;;5090644;28;20567;-70
2021/12/15 13:22:04;;;;;;;28.20;5.93;;;21.60;93.70;;;;;;5097898;28;20135;-69
2021/12/15 13:30:47;;;;;;;21.30;4.55;;;21.60;93.70;;;;;;5102234;28;20054;-69
2021/12/15 13:33:42;;;;;;;37.92;5.45;;;21.60;93.70;;;;;;5083112;28;20035;-70
2021/12/15 13:36:11;;;;;;;29.02;5.75;;;21.60;93.60;;;;;;5058924;28;20193;-70
2021/12/15 13:38:55;;;;;;;29.17;5.17;;;21.60;93.70;;;;;;5084956;28;20028;-70
2021/12/15 13:41:49;;;;;;;26.55;5.38;;;21.60;93.60;;;;;;5075477;28;20090;-69
2021/12/15 13:44:39;;;;;;;31.67;5.07;;;21.60;93.70;;;;;;5077095;28;20032;-69
2021/12/15 13:47:09;;;;;;;20.95;4.10;;;21.60;93.70;;;;;;5083203;28;20110;-69
2021/12/15 13:49:48;;;;;;;25.05;4.95;;;21.50;93.60;;;;;;5101426;28;20020;-69
2021/12/15 13:52:34;;;;;;;25.67;4.68;;;21.50;93.70;;;;;;5093857;28;20032;-69
2021/12/15 13:55:01;;;;;;;24.50;5.05;;;21.50;93.60;;;;;;5104701;28;20036;-69
2021/12/15 13:57:29;;;;;;;32.10;5.28;;;21.60;93.60;;;;;;5108002;28;20138;-70
2021/12/15 14:00:22;;;;;;;26.90;4.70;;;21.50;93.70;;;;;;5094512;28;20032;-70
2021/12/15 14:03:39;;;;;;;25.20;5.07;;;21.50;93.60;;;;;;5095976;28;20137;-70
2021/12/15 14:06:11;;;;;;;28.98;5.38;;;21.50;93.70;;;;;;5027585;28;20037;-69
2021/12/15 14:08:55;;;;;;;23.73;4.22;;;21.50;93.60;;;;;;5031536;28;20087;-70
2021/12/15 14:11:22;;;;;;;23.48;4.85;;;21.50;93.50;;;;;;5071328;28;20331;-70
2021/12/15 14:14:07;;;;;;;22.83;3.97;;;21.60;93.50;;;;;;5083419;28;20087;-70
2021/12/15 14:16:34;;;;;;;24.65;4.10;;;21.50;93.50;;;;;;5085298;28;20139;-70
2021/12/15 14:19:04;;;;;;;25.52;4.10;;;21.50;93.50;;;;;;5087195;28;20115;-70
2021/12/15 14:21:32;;;;;;;22.77;4.78;;;21.50;93.50;;;;;;5086134;28;20082;-70
2021/12/15 14:23:59;;;;;;;20.20;4.20;;;21.50;93.40;;;;;;5058446;28;20394;-70
2021/12/15 14:26:28;;;;;;;19.10;3.60;;;21.50;93.50;;;;;;5057844;28;20257;-70
2021/12/15 14:28:58;;;;;;;32.97;3.80;;;21.50;93.40;;;;;;5068508;28;20028;-70
2021/12/15 14:31:44;;;;;;;23.67;3.83;;;21.50;93.50;;;;;;5086425;28;20044;-70
2021/12/15 14:34:14;;;;;;;17.77;3.33;;;21.50;93.20;;;;;;5073529;28;20033;-69
2021/12/15 14:36:47;;;;;;;23.42;4.28;;;21.50;93.40;;;;;;5071758;28;20034;-69
2021/12/15 14:39:25;;;;;;;18.60;4.07;;;21.50;93.30;;;;;;5079968;28;20028;-70
2021/12/15 14:42:12;;;;;;;24.10;4.28;;;21.50;93.40;;;;;;5076490;28;20045;-70
2021/12/15 14:44:44;;;;;;;30.08;4.68;;;21.50;93.40;;;;;;5092545;28;20055;-70
2021/12/15 14:47:16;;;;;;;23.95;5.00;;;21.50;93.40;;;;;;5093107;28;20032;-70
2021/12/15 14:49:49;;;;;;;31.58;4.65;;;21.50;93.40;;;;;;5077632;28;20040;-70
2021/12/15 14:52:21;;;;;;;22.25;4.53;;;21.50;93.20;;;;;;5089525;28;20067;-70
2021/12/15 14:54:51;;;;;;;23.98;4.18;;;21.50;93.30;;;;;;5090743;28;20072;-70
2021/12/15 14:57:20;;;;;;;22.92;4.40;;;21.50;93.20;;;;;;5084739;28;20040;-70
2021/12/15 14:59:53;;;;;;;27.83;4.45;;;21.50;93.20;;;;;;5072586;28;20494;-69
2021/12/15 15:02:25;;;;;;;26.90;3.92;;;21.50;93.30;;;;;;5073489;28;20032;-70
2021/12/15 15:05:19;;;;;;;23.70;4.30;;;21.50;93.30;;;;;;5093194;28;20070;-70
2021/12/15 15:07:51;;;;;;;21.90;3.97;;;21.40;93.20;;;;;;5055186;28;20060;-70
2021/12/15 15:10:21;;;;;;;17.92;3.40;;;21.40;93.20;;;;;;5092632;28;20539;-70
2021/12/15 15:12:48;;;;;;;25.67;4.53;;;21.40;93.30;;;;;;5091998;28;20397;-70
2021/12/15 15:15:26;;;;;;;26.70;4.57;;;21.40;93.30;;;;;;5082484;28;20048;-70
2021/12/15 15:18:31;;;;;;;21.17;4.13;;;21.40;93.40;;;;;;5070024;28;20042;-70
2021/12/15 15:21:06;;;;;;;24.48;4.22;;;21.40;93.20;;;;;;5090811;28;20113;-70
2021/12/15 15:23:41;;;;;;;29.27;4.53;;;21.40;93.30;;;;;;5073257;28;20032;-70
2021/12/15 15:26:10;;;;;;;21.05;4.57;;;21.40;93.30;;;;;;5042711;28;20451;-70
2021/12/15 15:28:55;;;;;;;25.33;4.82;;;21.40;93.20;;;;;;5056375;28;20024;-70
2021/12/15 15:31:28;;;;;;;23.02;4.13;;;21.40;93.00;;;;;;5071912;28;20082;-70
2021/12/15 15:33:58;;;;;;;26.92;4.82;;;21.40;93.00;;;;;;5063610;28;20036;-70
2021/12/15 15:36:28;;;;;;;19.10;4.85;;;21.40;92.90;;;;;;5055958;28;20047;-70
2021/12/15 15:38:56;;;;;;;27.58;4.70;;;21.40;92.60;;;;;;5071331;28;20036;-70
2021/12/15 15:41:30;;;;;;;17.90;4.22;;;21.30;92.80;;;;;;5074076;28;20059;-70
2021/12/15 15:44:09;;;;;;;23.45;4.15;;;21.30;92.90;;;;;;5084067;28;20060;-70
2021/12/15 15:46:41;;;;;;;23.00;4.63;;;21.30;92.70;;;;;;5066540;28;20075;-70
2021/12/15 15:49:11;;;;;;;21.65;3.80;;;21.30;92.70;;;;;;5087059;28;20040;-70
2021/12/15 15:51:39;;;;;;;21.95;3.90;;;21.30;92.50;;;;;;5089176;28;20024;-70
2021/12/15 15:54:12;;;;;;;23.92;4.72;;;21.30;92.50;;;;;;5069844;28;20036;-70
2021/12/15 15:56:41;;;;;;;20.45;4.35;;;21.30;92.70;;;;;;5059547;28;20102;-70
2021/12/15 15:59:13;;;;;;;17.27;3.58;;;21.30;92.40;;;;;;5086914;28;20496;-70
2021/12/15 16:01:45;;;;;;;18.95;3.70;;;21.30;92.30;;;;;;5070544;28;20035;-70
2021/12/15 16:04:14;;;;;;;14.43;3.05;;;21.30;92.10;;;;;;5075899;28;20032;-70
2021/12/15 16:06:41;;;;;;;18.30;4.07;;;21.20;91.80;;;;;;5085912;28;20078;-70
2021/12/15 16:09:10;;;;;;;14.65;3.25;;;21.10;91.70;;;;;;5071774;28;20036;-70
2021/12/15 16:11:43;;;;;;;11.35;2.92;;;21.10;91.80;;;;;;5053959;28;20036;-70
2021/12/15 16:14:11;;;;;;;14.10;2.83;;;21.00;91.80;;;;;;5083687;28;20559;-70
2021/12/15 16:16:49;;;;;;;16.98;3.38;;;21.00;91.70;;;;;;5089462;28;20067;-70
2021/12/15 16:19:27;;;;;;;12.80;2.97;;;21.00;91.70;;;;;;5077046;28;20430;-70
2021/12/15 16:24:40;;;;;;;10.45;3.03;;;21.10;91.70;;;;;;5081890;28;20051;-70
2021/12/15 16:27:08;;;;;;;18.23;3.13;;;21.10;91.90;;;;;;5073780;28;20033;-70
2021/12/15 16:29:35;;;;;;;13.48;3.22;;;21.10;91.60;;;;;;5083946;28;20116;-70
2021/12/15 16:32:12;;;;;;;14.20;3.10;;;21.10;91.70;;;;;;5074751;28;20110;-70
2021/12/15 16:34:45;;;;;;;15.13;3.58;;;21.10;91.40;;;;;;5071480;28;20047;-70
2021/12/15 16:37:24;;;;;;;12.35;3.25;;;21.00;91.30;;;;;;5072020;28;20110;-70
2021/12/15 16:39:52;;;;;;;9.80;2.90;;;21.00;91.10;;;;;;5089205;28;20051;-69
2021/12/15 16:42:22;;;;;;;17.27;4.22;;;20.90;90.70;;;;;;5088930;28;20089;-70
2021/12/15 16:44:57;;;;;;;19.58;3.50;;;20.90;90.70;;;;;;5053551;28;20478;-70
2021/12/15 16:47:33;;;;;;;13.50;3.30;;;20.80;90.80;;;;;;5071955;28;20028;-71
2021/12/15 16:50:00;;;;;;;13.57;3.58;;;20.80;90.80;;;;;;5070161;28;20503;-70
2021/12/15 16:52:36;;;;;;;15.35;3.33;;;20.70;90.40;;;;;;5070076;28;20134;-69
2021/12/15 16:55:07;;;;;;;14.32;3.60;;;20.70;90.40;;;;;;5081276;28;20107;-70
2021/12/15 16:57:36;;;;;;;17.63;3.30;;;20.60;90.20;;;;;;5086377;28;20275;-70
2021/12/15 17:00:22;;;;;;;14.02;3.45;;;20.70;90.40;;;;;;5070908;28;20376;-70
2021/12/15 17:03:00;;;;;;;17.42;4.07;;;20.70;90.20;;;;;;5091130;28;20035;-70
2021/12/15 17:05:32;;;;;;;11.80;3.97;;;20.60;90.40;;;;;;5091657;28;20389;-70
2021/12/15 17:08:02;;;;;;;13.80;3.95;;;20.70;90.20;;;;;;5079989;28;20023;-70
2021/12/15 17:10:41;;;;;;;13.40;3.03;;;20.70;90.20;;;;;;5106814;28;20020;-70
2021/12/15 17:13:13;;;;;;;17.25;3.55;;;20.70;90.30;;;;;;5073130;28;20485;-70
2021/12/15 17:15:54;;;;;;;15.30;3.17;;;20.70;90.10;;;;;;5095340;28;20066;-70
2021/12/15 17:18:39;;;;;;;;;;;20.70;90.00;;;;;;5099369;28;20062;-70
2021/12/15 17:21:12;;;;;;;19.08;3.25;;;20.70;90.00;;;;;;5111187;28;19949;-70
2021/12/15 17:23:48;;;;;;;11.32;3.08;;;20.70;89.80;;;;;;5104455;28;20110;-70
2021/12/15 17:26:33;;;;;;;17.65;3.60;;;20.70;89.80;;;;;;5095019;28;20403;-70
2021/12/15 17:29:07;;;;;;;11.27;3.15;;;20.70;89.90;;;;;;5102490;28;20043;-71
2021/12/15 17:31:36;;;;;;;14.48;3.22;;;20.70;89.50;;;;;;5071120;28;20031;-69
2021/12/15 17:34:08;;;;;;;17.27;2.78;;;20.70;89.60;;;;;;5064329;28;20044;-70
2021/12/15 17:36:50;;;;;;;17.00;3.13;;;20.70;89.70;;;;;;5093618;28;20032;-69
2021/12/15 17:39:33;;;;;;;10.85;2.65;;;20.70;89.30;;;;;;5072906;28;20036;-69
2021/12/15 17:42:20;;;;;;;13.57;2.78;;;20.70;89.50;;;;;;5083782;28;20112;-69
2021/12/15 17:44:47;;;;;;;14.55;3.28;;;20.70;89.60;;;;;;5120414;28;20041;-69
2021/12/15 17:47:21;;;;;;;13.38;3.13;;;20.70;89.50;;;;;;5099173;28;20035;-69
2021/12/15 17:50:05;;;;;;;15.85;3.00;;;20.70;89.40;;;;;;5091883;28;20122;-69
2021/12/15 17:52:48;;;;;;;15.60;2.97;;;20.70;89.50;;;;;;5108335;28;20362;-69
2021/12/15 17:55:21;;;;;;;13.55;2.90;;;20.70;89.50;;;;;;5078404;28;20501;-71
2021/12/15 17:58:01;;;;;;;15.15;3.20;;;20.70;89.30;;;;;;5104811;28;20059;-68
2021/12/15 18:00:33;;;;;;;15.10;2.80;;;20.80;89.10;;;;;;5095353;28;20482;-69
2021/12/15 18:03:04;;;;;;;16.40;3.40;;;20.70;89.30;;;;;;5076180;28;20129;-70
2021/12/15 18:05:31;;;;;;;12.45;2.97;;;20.70;89.30;;;;;;5108464;28;20082;-69
2021/12/15 18:07:58;;;;;;;18.67;3.25;;;20.70;89.10;;;;;;5100386;28;20051;-69
2021/12/15 18:10:43;;;;;;;18.77;3.30;;;20.70;89.20;;;;;;5095607;28;20028;-69
2021/12/15 20:43:20;;;;;;;14.45;3.10;;;22.10;83.60;;;;;;5100860;27;20054;-71
2021/12/15 20:45:48;;;;;;;12.45;3.60;;;22.30;82.90;;;;;;5097262;28;20032;-71
2021/12/15 20:48:15;;;;;;;17.00;4.13;;;22.40;83.30;;;;;;5096404;28;20497;-71
2021/12/15 20:50:43;;;;;;;6.90;2.28;;;22.50;81.20;;;;;;5117981;27;20488;-71
2021/12/15 20:53:13;;;;;;;13.50;3.58;;;22.50;80.90;;;;;;5068725;28;20028;-71
2021/12/15 20:55:40;;;;;;;9.07;2.80;;;22.50;81.20;;;;;;5072573;28;20085;-72
2021/12/15 20:58:07;;;;;;;9.38;2.60;;;22.40;80.60;;;;;;5075319;28;20024;-71
2021/12/15 21:00:37;;;;;;;12.02;2.60;;;22.50;82.20;;;;;;5093515;28;20049;-71
2021/12/15 21:03:05;;;;;;;12.57;2.67;;;22.50;81.00;;;;;;5084426;28;20028;-71
2021/12/15 21:05:40;;;;;;;12.63;2.90;;;22.40;80.00;;;;;;5106385;28;20497;-71
2021/12/15 21:08:07;;;;;;;13.20;3.47;;;22.30;80.10;;;;;;5075245;28;20036;-72
2021/12/15 21:10:35;;;;;;;9.52;2.80;;;22.20;81.00;;;;;;5095429;28;20545;-71
2021/12/15 21:13:02;;;;;;;11.73;3.40;;;22.20;81.20;;;;;;5078823;28;20511;-71
2021/12/15 21:15:30;;;;;;;7.72;2.90;;;22.10;81.10;;;;;;5105161;28;20089;-71
2021/12/15 21:17:57;;;;;;;12.10;4.30;;;22.00;81.50;;;;;;5110015;28;20034;-71
2021/12/15 21:20:25;;;;;;;17.92;3.83;;;22.00;81.90;;;;;;5110076;28;20047;-72
2021/12/15 21:22:53;;;;;;;14.80;4.20;;;22.00;81.90;;;;;;5110210;28;20028;-72
2021/12/15 21:25:20;;;;;;;16.30;4.88;;;22.20;82.50;;;;;;5109194;28;20027;-72
2021/12/15 21:27:48;;;;;;;19.13;4.28;;;22.30;81.70;;;;;;5109234;28;20023;-71
2021/12/15 21:30:28;;;;;;;17.58;5.05;;;22.30;81.50;;;;;;5109315;28;20097;-72
2021/12/15 21:32:55;;;;;;;17.00;4.90;;;22.30;81.80;;;;;;5099023;27;20051;-71
2021/12/15 21:35:24;;;;;;;12.38;4.47;;;22.30;81.50;;;;;;5122723;27;20425;-71
2021/12/15 21:37:52;;;;;;;11.20;4.07;;;22.30;81.20;;;;;;5077396;28;20023;-72
2021/12/15 21:40:20;;;;;;;8.82;3.53;;;22.30;81.20;;;;;;5094246;28;20027;-71
2021/12/15 21:42:48;;;;;;;16.33;4.28;;;22.40;81.90;;;;;;5110658;28;20048;-73
2021/12/15 21:45:17;;;;;;;12.35;3.70;;;22.40;81.30;;;;;;5094275;28;20109;-73
2021/12/15 21:47:44;;;;;;;21.58;5.97;;;22.50;81.30;;;;;;5096538;28;20387;-73
2021/12/15 21:50:11;;;;;;;11.70;4.72;;;22.60;82.50;;;;;;5124086;28;20031;-72
2021/12/15 21:52:39;;;;;;;17.42;5.18;;;22.70;80.20;;;;;;5110246;28;20024;-72
2021/12/15 21:55:07;;;;;;;16.45;5.03;;;22.70;81.50;;;;;;5095602;28;20046;-72
2021/12/15 21:57:35;;;;;;;10.88;4.93;;;22.60;80.90;;;;;;5122331;28;20024;-72
2021/12/15 22:00:04;;;;;;;10.30;5.13;;;22.70;81.30;;;;;;5092692;28;20030;-71
2021/12/15 22:02:31;;;;;;;22.83;6.37;;;22.70;79.70;;;;;;5099050;28;20558;-71
2021/12/15 22:04:58;;;;;;;17.33;6.18;;;22.70;79.80;;;;;;5102116;28;20378;-73
2021/12/15 22:07:25;;;;;;;27.08;7.47;;;22.60;80.20;;;;;;5092880;28;20031;-73
2021/12/15 22:09:53;;;;;;;18.02;6.53;;;22.50;79.40;;;;;;5092103;28;20085;-73
2021/12/15 23:19:49;;;;;;;18.75;7.10;;;22.50;79.70;;;;;;5116238;27;20409;-72
2021/12/15 23:22:17;;;;;;;14.07;6.97;;;22.40;79.50;;;;;;5133924;27;20484;-72
2021/12/15 23:24:44;;;;;;;13.63;6.82;;;22.70;79.70;;;;;;5133943;27;20034;-72
2021/12/15 23:27:12;;;;;;;15.48;7.00;;;23.00;78.90;;;;;;5121033;27;20024;-72
2021/12/15 23:29:39;;;;;;;27.15;7.07;;;23.20;77.80;;;;;;5113369;28;20036;-72
2021/12/15 23:32:10;;;;;;;14.32;6.93;;;23.30;77.70;;;;;;5118561;27;20023;-71
2021/12/15 23:34:39;;;;;;;15.70;6.55;;;23.50;77.00;;;;;;5071391;27;20042;-71
2021/12/15 23:37:06;;;;;;;15.35;6.60;;;23.60;76.10;;;;;;5133442;27;20027;-70
2021/12/15 23:40:11;;;;;;;17.90;6.57;;;23.70;75.30;;;;;;5116056;27;20023;-71
2021/12/15 23:54:47;;;;;;;20.38;7.97;;;23.70;76.50;;;;;;5112109;28;20097;-72
